Impacts TAF Board INFO
FOR SITUATIONAL AWARENESS. NOT TO BE USED FOR FLIGHT PLANNING PURPOSES.
IDs:

KSEA - Seattle-Tacoma Intl, WA, US

Issued at 2100 UTC 25 Feb 2018
Updated at 2333 UTC 25 Feb 2018
Potential Impact None Slight Moderate High
Time2312Z 26/00Z 26/01Z 26/02Z 26/03Z 26/04Z 26/05Z 26/06Z 26/07Z 26/08Z 26/09Z 26/10Z 26/11Z 26/12Z>>
Type OBS PRVL PRVL PRVL PRVL PRVL PRVL PRVL PRVL PRVL PRVL PRVL PRVL PRVL
VIS 10 >6 >6 >6 >6 >6 >6 >6 >6 >6 >6 >6 >6 >6
CIG 80 35 35 40 40 20 20 20 20 20 20 20 20 20
Cover BKN BKN BKN BKN BKN BKN BKN BKN BKN OVC OVC OVC OVC OVC
FltCat VFR VFR VFR VFR VFR MVFR MVFR MVFR MVFR MVFR MVFR MVFR MVFR MVFR
WX -- VCSH VCSH -- -- -- -- -- -- -- -- -- -- --
WDir 190 220 220 220 220 190 190 190 190 170 170 170 170 170
WSpd 10 19 19 14 14 10 10 10 10 6 6 6 6 6
WGst 18 25 25 -- -- -- -- -- -- -- -- -- -- --

Raw TAF
KSEA 252100Z 2521/2624 22009G17KT P6SM VCSH SCT026 BKN100
  TEMPO 2521/2523 27007KT -SHRA OVC014
  FM252300 22019G25KT P6SM VCSH SCT020 BKN035
  FM260200 22014KT P6SM SCT020 BKN040
  FM260400 19010KT P6SM BKN020
  FM260800 17006KT P6SM BKN020 OVC030
  FM261800 17005KT P6SM BKN015


Raw METAR
KSEA 252312Z 19010G18KT 10SM SCT022 BKN080 04/01 A2977 RMK AO2 T00440006
KSEA 252253Z 20012KT 10SM BKN023 OVC070 05/01 A2978 RMK AO2 SLP092 T00500006
KSEA 252212Z 24013G23KT 10SM BKN023 BKN030 OVC150 06/00 A2979 RMK AO2 T00560000
KSEA 252153Z 21014KT 10SM SCT025 BKN110 06/01 A2978 RMK AO2 SLP093 T00560006
KSEA 252053Z 22009G17KT 180V260 10SM SCT026 BKN100 06/01 A2979 RMK AO2 SLP096 T00610006 58003

METAR Board
Radar Display
Forecast Discussion

FOR SITUATIONAL AWARENESS. NOT TO BE USED FOR FLIGHT PLANNING PURPOSES.